Time;durP1;ratioP1;P1;durP2;ratioP2;P2;SDS_P1;SDS_P2;PMS_P1;PMS_P2;Temp;Humidity;BMP_temperature;BMP_pressure;BME280_temperature;BME280_humidity;BME280_pressure;Samples;Min_cycle;Max_cycle;Signal;HPM_P1;HPM_P2
2022/01/24 00:00:29;;;;;;;37.70;16.77;;;;;;;-0.15;84.36;101955.30;2016914;86;21061;-78
2022/01/24 00:03:33;;;;;;;32.03;16.80;;;;;;;-0.14;84.29;101952.23;2019611;86;21050;-78
2022/01/24 00:06:38;;;;;;;35.80;17.55;;;;;;;-0.06;84.31;101952.81;2016039;86;21132;-78
2022/01/24 00:09:39;;;;;;;35.10;17.30;;;;;;;0.01;84.35;101958.70;2015647;87;21083;-78
2022/01/24 00:16:12;;;;;;;35.85;16.75;;;;;;;0.17;84.18;101946.77;1998675;87;21077;-79
2022/01/24 00:28:41;;;;;;;35.95;16.30;;;;;;;0.14;83.76;101940.36;2012890;87;21564;-79
2022/01/24 00:31:42;;;;;;;34.40;17.37;;;;;;;0.13;83.68;101939.98;2016190;87;21021;-79
2022/01/24 00:34:44;;;;;;;36.95;17.23;;;;;;;0.16;83.70;101938.55;2014830;87;21054;-78
2022/01/24 00:37:45;;;;;;;35.48;16.80;;;;;;;0.14;83.62;101941.66;2013996;87;21019;-78
2022/01/24 00:40:48;;;;;;;35.23;16.90;;;;;;;0.09;83.48;101935.78;2016624;87;21093;-78
2022/01/24 00:44:23;;;;;;;33.73;16.23;;;;;;;0.07;83.33;101937.59;2013701;87;21112;-79
2022/01/24 00:47:00;;;;;;;32.65;15.68;;;;;;;0.07;83.42;101936.28;2012696;86;21043;-78
2022/01/24 00:56:30;;;;;;;33.08;16.67;;;;;;;0.07;83.42;101938.44;2016383;87;21117;-78
2022/01/24 00:59:31;;;;;;;40.80;18.98;;;;;;;0.06;83.49;101951.10;2016653;87;21017;-78
2022/01/24 01:02:33;;;;;;;39.18;19.62;;;;;;;0.05;83.53;101948.53;2012723;87;21066;-78
2022/01/24 01:18:42;;;;;;;41.40;19.30;;;;;;;-0.03;83.45;101950.98;2030216;86;21769;-79
2022/01/24 01:21:44;;;;;;;42.08;17.85;;;;;;;-0.04;83.47;101951.86;2034261;86;21098;-78
2022/01/24 01:24:51;;;;;;;34.60;16.75;;;;;;;-0.03;83.55;101953.59;2031241;86;21023;-78
2022/01/24 01:27:50;;;;;;;33.83;16.97;;;;;;;-0.04;83.57;101956.23;2034649;86;21071;-79
2022/01/24 01:30:55;;;;;;;108.50;23.10;;;;;;;-0.05;83.59;101952.78;2034758;85;21113;-79
2022/01/24 01:34:04;;;;;;;71.57;26.33;;;;;;;0.01;83.74;101956.94;2014243;86;21571;-79
2022/01/24 01:56:41;;;;;;;36.80;16.37;;;;;;;0.04;83.40;101957.28;2036065;86;21043;-78
2022/01/24 01:59:44;;;;;;;29.75;15.40;;;;;;;0.04;83.48;101953.36;2035527;86;21091;-78
2022/01/24 02:02:47;;;;;;;31.42;16.73;;;;;;;0.02;83.29;101949.95;2031698;86;21755;-78
2022/01/24 02:05:48;;;;;;;33.90;17.42;;;;;;;0.07;83.54;101954.56;2026431;86;21067;-78
2022/01/24 02:09:04;;;;;;;38.20;17.82;;;;;;;0.07;83.43;101947.57;2022239;86;21091;-79
2022/01/24 02:12:07;;;;;;;30.50;16.10;;;;;;;0.05;83.29;101949.84;2020330;86;21084;-78
2022/01/24 02:15:12;;;;;;;34.00;16.12;;;;;;;0.07;83.39;101943.66;2018818;86;21041;-79
2022/01/24 02:18:30;;;;;;;29.57;14.78;;;;;;;0.06;83.21;101943.27;2020996;86;21009;-78
2022/01/24 02:21:41;;;;;;;31.75;15.10;;;;;;;-0.03;82.77;101939.66;2022109;86;22340;-78
2022/01/24 02:24:41;;;;;;;;;;;;;;;-0.15;82.78;101942.25;2027657;85;21058;-79
2022/01/24 02:27:46;;;;;;;33.55;16.17;;;;;;;-0.26;82.86;101943.92;2018542;86;20477;-78
2022/01/24 02:33:52;;;;;;;32.28;15.25;;;;;;;-0.43;82.68;101942.80;2017897;86;22282;-79
2022/01/24 02:36:57;;;;;;;31.42;15.38;;;;;;;-0.51;82.93;101950.88;2016053;86;21035;-79
2022/01/24 02:40:05;;;;;;;33.60;15.38;;;;;;;-0.58;82.99;101948.08;2019921;86;21098;-78
2022/01/24 02:49:41;;;;;;;36.85;16.67;;;;;;;-0.64;83.05;101944.38;2019849;86;21101;-78
2022/01/24 02:52:42;;;;;;;34.83;15.08;;;;;;;-0.65;83.04;101946.11;2016097;86;21009;-79
2022/01/24 02:55:45;;;;;;;25.40;14.10;;;;;;;-0.64;83.09;101949.14;2020422;85;21027;-79
2022/01/24 02:58:46;;;;;;;28.15;13.95;;;;;;;-0.63;83.01;101950.83;2015687;86;21098;-79
2022/01/24 03:01:48;;;;;;;27.65;12.85;;;;;;;-0.64;83.01;101954.35;2020570;86;21073;-79
2022/01/24 03:04:49;;;;;;;29.25;13.72;;;;;;;-0.63;82.97;101957.34;2017630;86;21002;-79
2022/01/24 03:07:51;;;;;;;23.55;12.30;;;;;;;-0.63;83.00;101954.73;2019314;85;21071;-78
2022/01/24 03:10:53;;;;;;;29.05;12.75;;;;;;;-0.65;82.92;101946.56;2022249;85;21073;-78
2022/01/24 03:13:54;;;;;;;24.12;11.73;;;;;;;-0.60;83.07;101948.13;2014746;86;21066;-78
2022/01/24 03:16:56;;;;;;;27.10;11.73;;;;;;;-0.58;82.98;101954.60;2021752;86;21123;-78
2022/01/24 03:19:59;;;;;;;21.73;11.03;;;;;;;-0.59;82.83;101956.78;2024302;86;21548;-79
2022/01/24 03:23:04;;;;;;;21.90;10.93;;;;;;;-0.62;82.81;101952.55;2019897;86;21137;-78
2022/01/24 03:26:05;;;;;;;25.08;11.78;;;;;;;-0.65;82.72;101956.99;2021686;86;21506;-79
2022/01/24 03:29:09;;;;;;;20.52;9.85;;;;;;;-0.70;82.80;101963.68;2020096;86;21037;-78
2022/01/24 03:32:10;;;;;;;19.32;10.15;;;;;;;-0.73;82.87;101958.57;2018251;86;21082;-78
2022/01/24 03:35:12;;;;;;;18.32;10.48;;;;;;;-0.79;82.88;101949.19;2018957;85;21014;-78
2022/01/24 03:38:14;;;;;;;17.90;9.15;;;;;;;-0.79;82.92;101960.92;2020933;86;21042;-79
2022/01/24 03:41:15;;;;;;;26.45;11.45;;;;;;;-0.80;82.96;101970.08;2019221;86;21518;-79
2022/01/24 03:44:18;;;;;;;30.32;11.05;;;;;;;-0.81;83.00;101972.30;2001047;86;22283;-78
2022/01/24 03:47:41;;;;;;;31.95;13.53;;;;;;;-0.82;83.09;101974.48;2016011;86;21062;-79
2022/01/24 03:50:26;;;;;;;26.80;13.35;;;;;;;-0.85;83.11;101971.52;2013861;86;21097;-81
2022/01/24 03:53:27;;;;;;;25.80;13.35;;;;;;;-0.91;83.06;101966.50;2019063;86;21062;-80
2022/01/24 03:56:28;;;;;;;30.65;13.95;;;;;;;-0.96;83.11;101969.27;2022810;86;21504;-79
2022/01/24 03:59:31;;;;;;;37.03;15.25;;;;;;;-1.00;83.21;101961.58;2019713;86;21086;-79
2022/01/24 04:02:32;;;;;;;34.65;16.80;;;;;;;-1.03;83.41;101965.59;2020074;85;22244;-80
2022/01/24 04:05:34;;;;;;;31.25;15.70;;;;;;;-1.07;83.42;101972.66;2022288;86;21085;-79
2022/01/24 04:08:35;;;;;;;31.15;14.38;;;;;;;-1.10;83.60;101961.45;2018448;86;21067;-79
2022/01/24 04:11:39;;;;;;;33.83;15.15;;;;;;;-1.14;83.73;101967.21;2022554;86;21112;-79
2022/01/24 04:14:54;;;;;;;28.85;15.32;;;;;;;-1.18;83.73;101969.52;2024550;86;21011;-79
2022/01/24 04:17:46;;;;;;;31.70;14.75;;;;;;;-1.20;83.86;101960.89;2026139;85;21602;-79
2022/01/24 04:24:13;;;;;;;33.78;15.90;;;;;;;-1.25;84.09;101953.66;2022283;86;21120;-80
2022/01/24 04:27:13;;;;;;;35.05;16.32;;;;;;;-1.33;84.36;101947.38;2022537;86;21661;-79
2022/01/24 04:30:15;;;;;;;35.10;15.30;;;;;;;-1.32;84.34;101959.94;2023420;86;21073;-79
2022/01/24 04:33:16;;;;;;;31.57;14.58;;;;;;;-1.33;84.28;101966.91;2020005;86;21028;-79
2022/01/24 04:36:20;;;;;;;31.95;15.28;;;;;;;-1.31;84.28;101972.92;2023448;86;21085;-78
2022/01/24 04:39:21;;;;;;;29.27;14.38;;;;;;;-1.28;84.35;101974.59;2023797;86;21121;-79
2022/01/24 04:42:32;;;;;;;29.87;14.63;;;;;;;-1.26;84.41;101963.69;2024504;86;21373;-78
2022/01/24 04:45:52;;;;;;;27.77;14.60;;;;;;;-1.23;84.29;101962.29;2024920;86;21060;-79
2022/01/24 04:55:10;;;;;;;28.38;14.30;;;;;;;-1.09;84.24;101976.20;1998176;86;21099;-79
2022/01/24 04:58:11;;;;;;;27.60;14.03;;;;;;;-1.06;84.22;101976.11;2021582;86;21018;-80
2022/01/24 05:01:13;;;;;;;32.28;14.53;;;;;;;-0.97;84.35;101976.66;2023002;86;20964;-80
2022/01/24 05:04:14;;;;;;;33.48;15.30;;;;;;;-0.83;84.38;101978.00;2023848;85;21020;-80
2022/01/24 05:07:16;;;;;;;30.02;14.80;;;;;;;-0.78;84.23;101981.31;2025523;86;21142;-80
2022/01/24 05:10:26;;;;;;;31.33;15.25;;;;;;;-0.79;83.97;101982.20;2032676;86;21006;-80
2022/01/24 05:26:27;;;;;;;30.12;15.58;;;;;;;-0.48;83.95;101985.98;2029963;86;21098;-80
2022/01/24 05:29:28;;;;;;;30.97;15.05;;;;;;;-0.42;83.88;101997.54;2029908;86;20996;-79
2022/01/24 05:32:30;;;;;;;28.32;13.72;;;;;;;-0.41;83.75;101987.95;2030408;86;22181;-80
2022/01/24 05:35:32;;;;;;;32.78;15.32;;;;;;;-0.39;83.59;101996.59;2027807;86;21665;-80
2022/01/24 05:38:33;;;;;;;34.90;15.28;;;;;;;-0.40;83.45;102000.08;2031277;86;21024;-79
2022/01/24 05:41:37;;;;;;;34.60;15.72;;;;;;;-0.50;83.34;102001.69;2028135;86;21059;-79
2022/01/24 05:44:38;;;;;;;39.10;16.40;;;;;;;-0.54;83.34;102002.67;2035447;86;21118;-80
2022/01/24 05:47:39;;;;;;;42.80;17.57;;;;;;;-0.61;83.35;102005.09;2030577;86;22535;-79
2022/01/24 05:50:41;;;;;;;47.25;19.52;;;;;;;-0.67;83.40;102008.36;2028460;86;21562;-80
2022/01/24 05:53:42;;;;;;;49.45;19.67;;;;;;;-0.74;83.45;102002.00;2031465;86;21066;-79
2022/01/24 05:56:43;;;;;;;55.20;22.05;;;;;;;-0.76;83.56;102001.65;2030507;86;21069;-79
2022/01/24 05:59:46;;;;;;;51.90;21.77;;;;;;;-0.78;83.62;102008.23;2032346;86;21560;-78
2022/01/24 06:02:48;;;;;;;47.73;20.08;;;;;;;-0.72;83.76;102015.00;2029195;86;21042;-79
2022/01/24 06:05:49;;;;;;;41.98;18.85;;;;;;;-0.66;83.72;102008.75;2031095;86;21075;-80
2022/01/24 06:08:50;;;;;;;35.17;17.57;;;;;;;-0.67;83.65;102009.20;2031696;86;21025;-79
2022/01/24 06:11:52;;;;;;;37.95;18.60;;;;;;;-0.68;83.58;102007.48;2031417;87;21119;-79
2022/01/24 06:14:53;;;;;;;37.28;17.85;;;;;;;-0.73;83.52;102006.80;2026090;87;21117;-81
2022/01/24 06:17:54;;;;;;;38.63;18.20;;;;;;;-0.74;83.61;102010.28;2031773;87;21588;-79
2022/01/24 06:20:57;;;;;;;45.75;18.55;;;;;;;-0.79;83.59;102007.84;2027007;87;21522;-79
2022/01/24 06:23:59;;;;;;;47.43;19.10;;;;;;;-0.79;83.67;102009.14;2028693;87;21083;-79
2022/01/24 06:27:00;;;;;;;38.15;17.75;;;;;;;-0.80;83.67;102010.02;2043873;85;21033;-80
2022/01/24 06:30:04;;;;;;;41.15;19.20;;;;;;;-0.83;83.68;102004.91;2026931;87;21054;-80
2022/01/24 06:33:05;;;;;;;43.42;20.27;;;;;;;-0.84;83.72;102004.97;2027796;87;21069;-79
2022/01/24 06:36:07;;;;;;;44.80;20.12;;;;;;;-0.86;83.72;102005.47;2030418;87;21081;-80
2022/01/24 06:39:10;;;;;;;42.60;20.48;;;;;;;-0.88;83.78;102012.02;2033475;87;21688;-82
2022/01/24 06:42:21;;;;;;;43.80;21.87;;;;;;;-0.84;83.85;102008.88;2030734;87;20981;-80
2022/01/24 06:45:16;;;;;;;46.42;22.52;;;;;;;-0.81;83.81;102010.94;2027673;87;21042;-79
2022/01/24 06:48:18;;;;;;;46.83;23.98;;;;;;;-0.75;83.87;102013.80;2031548;87;21519;-78
2022/01/24 06:51:20;;;;;;;50.98;22.77;;;;;;;-0.66;83.92;102014.81;2028743;87;21576;-78
2022/01/24 06:54:22;;;;;;;52.13;25.02;;;;;;;-0.65;83.69;102023.02;2029684;87;21117;-78
2022/01/24 06:57:24;;;;;;;45.10;22.05;;;;;;;-0.64;83.68;102022.59;2029688;87;21056;-79
2022/01/24 07:00:28;;;;;;;47.73;23.75;;;;;;;-0.66;83.45;102035.67;2030546;87;21026;-78
2022/01/24 07:03:29;;;;;;;50.52;23.87;;;;;;;-0.67;83.49;102036.58;2027933;87;21058;-79
2022/01/24 07:06:30;;;;;;;53.68;25.12;;;;;;;-0.62;83.59;102040.33;2029791;87;21097;-78
2022/01/24 07:09:32;;;;;;;46.85;22.67;;;;;;;-0.55;83.63;102041.86;2019741;86;21043;-77
2022/01/24 07:12:33;;;;;;;46.40;22.20;;;;;;;-0.56;83.35;102025.81;2042939;85;21124;-79
2022/01/24 07:15:40;;;;;;;53.48;21.90;;;;;;;-0.63;83.30;102038.17;2016294;86;21019;-77
2022/01/24 07:22:00;;;;;;;51.53;24.65;;;;;;;-0.65;83.37;102043.03;2016836;86;21067;-81
2022/01/24 07:25:02;;;;;;;47.17;21.62;;;;;;;-0.68;83.43;102038.77;2020141;86;21578;-80
2022/01/24 07:28:04;;;;;;;48.23;22.77;;;;;;;-0.68;83.43;102033.55;2017618;86;21081;-76
2022/01/24 07:31:05;;;;;;;47.60;22.85;;;;;;;-0.70;83.46;102044.05;2018318;86;21051;-77
2022/01/24 07:34:06;;;;;;;45.55;23.87;;;;;;;-0.65;83.57;102054.31;2013827;86;21561;-78
2022/01/24 07:37:08;;;;;;;52.48;23.52;;;;;;;-0.62;83.52;102059.45;2016094;86;21070;-78
2022/01/24 07:40:13;;;;;;;44.73;21.48;;;;;;;-0.58;83.53;102067.58;2015972;86;22289;-80
2022/01/24 07:43:14;;;;;;;53.10;22.67;;;;;;;-0.51;83.66;102069.11;2018912;85;21588;-82
2022/01/24 07:46:17;;;;;;;45.63;22.40;;;;;;;-0.42;83.62;102064.47;2019959;86;21495;-80
2022/01/24 07:49:18;;;;;;;44.98;21.90;;;;;;;-0.32;83.58;102071.11;2021000;86;21537;-81
2022/01/24 07:52:19;;;;;;;52.13;22.75;;;;;;;-0.21;83.53;102072.08;2016600;86;21033;-81
2022/01/24 07:55:21;;;;;;;55.58;23.57;;;;;;;-0.07;83.64;102074.63;2015384;86;21399;-82
2022/01/24 07:58:23;;;;;;;52.38;23.50;;;;;;;0.02;83.19;102076.53;2021180;86;21104;-81
2022/01/24 08:01:26;;;;;;;48.78;23.45;;;;;;;-0.04;83.02;102075.83;2018345;86;21068;-82
2022/01/24 08:04:27;;;;;;;46.68;22.22;;;;;;;0.03;83.22;102070.40;2019997;86;21065;-81
2022/01/24 08:07:29;;;;;;;56.33;23.52;;;;;;;0.01;83.06;102074.38;2015971;86;21072;-83
2022/01/24 08:10:31;;;;;;;47.95;23.42;;;;;;;0.05;83.04;102061.62;2016020;86;21001;-80
2022/01/24 08:13:32;;;;;;;53.80;23.27;;;;;;;-0.01;82.76;102061.83;2017730;86;21088;-81
2022/01/24 08:16:35;;;;;;;62.83;26.42;;;;;;;-0.09;82.78;102055.55;2022459;86;21000;-82
2022/01/24 08:19:36;;;;;;;45.73;23.18;;;;;;;-0.15;82.74;102052.30;2017742;86;21032;-82
2022/01/24 08:22:38;;;;;;;52.20;24.95;;;;;;;-0.26;82.73;102060.02;2022913;86;21481;-82
2022/01/24 08:25:40;;;;;;;50.63;25.15;;;;;;;-0.32;82.88;102059.38;2023043;86;20985;-82
2022/01/24 08:28:42;;;;;;;48.60;25.57;;;;;;;-0.34;83.08;102064.66;2018728;86;21043;-82
2022/01/24 08:31:44;;;;;;;52.30;26.57;;;;;;;-0.29;83.21;102069.70;2017767;86;21025;-82
2022/01/24 08:34:45;;;;;;;48.80;25.52;;;;;;;-0.25;83.20;102076.55;2017662;86;21028;-82
2022/01/24 08:37:47;;;;;;;49.67;22.85;;;;;;;-0.28;83.12;102080.11;2016865;86;21079;-82
2022/01/24 08:40:55;;;;;;;51.40;21.77;;;;;;;-0.34;83.04;102084.22;2015853;85;21070;-81
2022/01/24 08:44:10;;;;;;;47.70;22.90;;;;;;;-0.36;83.22;102083.87;2019946;86;21054;-83
2022/01/24 08:47:00;;;;;;;41.68;20.80;;;;;;;-0.38;83.34;102085.20;2014614;86;21017;-79
2022/01/24 08:50:05;;;;;;;45.45;22.00;;;;;;;-0.38;83.34;102081.75;2043621;85;21684;-80
2022/01/24 08:53:07;;;;;;;61.37;22.35;;;;;;;-0.36;83.43;102078.66;2015634;86;21582;-79
2022/01/24 08:56:11;;;;;;;52.55;24.72;;;;;;;-0.25;83.60;102081.31;2017607;86;20981;-80
2022/01/24 08:59:12;;;;;;;58.60;24.05;;;;;;;-0.19;83.40;102085.48;2017920;86;21703;-80
2022/01/24 09:02:17;;;;;;;46.18;22.22;;;;;;;-0.18;83.38;102085.02;2019867;86;21051;-79
2022/01/24 09:05:22;;;;;;;55.15;24.50;;;;;;;-0.16;83.43;102080.16;2017868;86;21046;-80
2022/01/24 09:08:23;;;;;;;53.38;23.67;;;;;;;-0.15;83.34;102090.98;2020244;86;21543;-79
2022/01/24 09:11:34;;;;;;;51.02;22.75;;;;;;;-0.10;83.53;102076.04;2027802;85;21155;-78
2022/01/24 09:14:35;;;;;;;54.65;26.25;;;;;;;0.04;83.55;102078.20;2026477;86;21101;-78
2022/01/24 09:17:37;;;;;;;57.38;25.95;;;;;;;0.14;83.62;102081.33;2027495;86;21087;-78
2022/01/24 09:20:39;;;;;;;60.20;27.90;;;;;;;0.15;83.24;102065.63;2029954;86;21356;-79
2022/01/24 09:23:41;;;;;;;52.10;26.12;;;;;;;0.23;83.48;102070.60;2004957;86;21005;-79
2022/01/24 09:26:42;;;;;;;49.33;24.98;;;;;;;0.25;83.24;102067.46;2028854;85;21050;-76
2022/01/24 09:29:44;;;;;;;46.30;24.12;;;;;;;0.32;83.31;102068.97;2028693;86;21029;-78
2022/01/24 09:32:46;;;;;;;44.13;21.20;;;;;;;0.36;83.21;102071.86;1980522;89;20973;-78
2022/01/24 09:35:47;;;;;;;49.13;20.92;;;;;;;0.43;83.11;102060.31;2015291;87;21089;-79
2022/01/24 09:38:49;;;;;;;50.80;23.27;;;;;;;0.41;82.78;102059.50;2027599;86;21065;-77
2022/01/24 09:41:53;;;;;;;42.50;20.77;;;;;;;0.33;82.69;102069.81;2042762;86;21064;-78
2022/01/24 09:44:57;;;;;;;35.88;17.80;;;;;;;0.33;82.89;102074.58;2042757;86;21113;-86
2022/01/24 09:47:59;;;;;;;43.92;19.50;;;;;;;0.33;82.71;102071.97;1989314;88;21102;-79
2022/01/24 09:51:00;;;;;;;39.40;18.02;;;;;;;0.33;82.61;102062.83;1984313;88;21067;-78
2022/01/24 09:54:03;;;;;;;43.05;20.08;;;;;;;0.34;82.73;102053.23;1999657;87;21107;-79
2022/01/24 09:57:05;;;;;;;42.83;21.25;;;;;;;0.40;82.94;102058.27;1985285;88;21060;-79
2022/01/24 10:00:11;;;;;;;37.53;18.07;;;;;;;0.55;83.14;102060.31;1987496;88;21105;-79
2022/01/24 10:03:14;;;;;;;44.30;18.75;;;;;;;0.69;82.91;102061.13;2027914;86;21171;-78
2022/01/24 10:06:15;;;;;;;37.53;19.02;;;;;;;0.71;82.64;102060.63;2031417;86;21058;-78
2022/01/24 10:09:17;;;;;;;35.25;18.82;;;;;;;0.77;82.75;102057.78;2006692;87;21151;-78
2022/01/24 10:19:09;;;;;;;45.70;20.37;;;;;;;0.64;82.03;102057.36;2029915;87;21011;-78
2022/01/24 10:22:10;;;;;;;42.23;19.87;;;;;;;0.63;82.25;102053.52;2033462;87;21040;-78
2022/01/24 10:25:12;;;;;;;35.80;17.57;;;;;;;0.71;82.50;102058.02;2025465;87;21014;-81
2022/01/24 10:28:33;;;;;;;41.75;17.98;;;;;;;0.76;81.91;102052.17;2031357;87;21050;-77
2022/01/24 10:31:34;;;;;;;39.48;19.23;;;;;;;0.73;81.73;102053.56;2025681;87;21595;-78
2022/01/24 10:34:37;;;;;;;40.30;19.05;;;;;;;0.76;81.96;102057.40;2031112;87;21101;-79
2022/01/24 10:37:38;;;;;;;40.03;20.30;;;;;;;0.85;82.05;102058.81;2030769;87;21508;-81
2022/01/24 10:40:50;;;;;;;40.58;19.60;;;;;;;0.98;82.17;102047.43;2027343;87;21044;-85
2022/01/24 10:43:55;;;;;;;39.80;17.67;;;;;;;1.12;82.10;102049.91;2029897;87;21057;-80
2022/01/24 10:47:27;;;;;;;28.87;15.53;;;;;;;1.25;81.94;102052.07;2031231;87;21135;-79
2022/01/24 10:50:29;;;;;;;39.42;17.75;;;;;;;1.20;80.73;102044.39;2027187;87;21092;-78
2022/01/24 10:53:38;;;;;;;30.97;16.48;;;;;;;1.04;80.48;102044.15;2031829;87;21088;-78
2022/01/24 10:56:44;;;;;;;35.17;16.93;;;;;;;0.91;80.11;102035.52;2029776;87;21092;-77
2022/01/24 10:59:45;;;;;;;34.80;17.12;;;;;;;0.84;80.39;102039.64;2029160;87;21062;-77
2022/01/24 11:02:57;;;;;;;34.30;15.58;;;;;;;0.86;80.68;102039.60;2027857;87;21117;-77
2022/01/24 11:05:56;;;;;;;32.05;16.00;;;;;;;0.83;80.08;102043.17;2028964;87;21581;-77
2022/01/24 11:09:15;;;;;;;32.48;16.70;;;;;;;0.81;80.30;102039.77;2034446;87;21584;-77
2022/01/24 11:12:18;;;;;;;34.15;16.93;;;;;;;0.91;80.83;102040.29;2019249;87;21668;-77
2022/01/24 11:15:22;;;;;;;39.18;18.35;;;;;;;1.00;80.54;102035.16;2030216;87;21081;-78
2022/01/24 11:18:25;;;;;;;38.78;18.00;;;;;;;1.06;80.07;102034.46;2027314;87;21005;-77
2022/01/24 11:21:33;;;;;;;34.08;16.37;;;;;;;1.04;80.25;102031.08;2005727;88;21073;-77
2022/01/24 11:24:50;;;;;;;34.80;17.48;;;;;;;1.01;79.75;102030.32;1973127;89;21629;-77
2022/01/24 11:27:49;;;;;;;35.55;18.45;;;;;;;1.04;80.15;102017.13;2030749;87;21079;-77
2022/01/24 11:31:30;;;;;;;40.78;19.60;;;;;;;1.08;80.34;102026.11;2033561;87;21045;-77
2022/01/24 11:34:39;;;;;;;34.63;17.70;;;;;;;1.06;80.09;102019.23;2025162;87;21550;-77
2022/01/24 11:37:45;;;;;;;38.28;17.48;;;;;;;1.03;80.18;102018.05;2027644;87;20979;-77
2022/01/24 11:40:48;;;;;;;37.35;17.77;;;;;;;1.04;79.91;102017.13;2031234;87;21436;-78
2022/01/24 11:43:55;;;;;;;37.42;18.27;;;;;;;1.03;79.92;102014.13;2030432;87;21082;-78
2022/01/24 11:46:59;;;;;;;43.28;19.95;;;;;;;1.05;80.07;102015.78;2032479;87;21375;-79
2022/01/24 11:50:25;;;;;;;40.10;20.57;;;;;;;1.15;80.26;102012.80;2030278;87;21071;-78
2022/01/24 11:53:34;;;;;;;37.83;18.42;;;;;;;1.26;80.05;102012.77;2033884;87;21116;-81
2022/01/24 11:56:37;;;;;;;40.28;18.62;;;;;;;1.38;79.99;102011.88;2029913;87;21580;-80
2022/01/24 11:59:39;;;;;;;40.45;17.80;;;;;;;1.42;79.86;102011.71;2032540;87;21116;-80
2022/01/24 12:02:52;;;;;;;41.45;20.10;;;;;;;1.49;79.78;101995.30;2025660;87;21093;-80
2022/01/24 12:06:09;;;;;;;45.60;21.42;;;;;;;1.45;78.99;101991.12;2032611;87;21222;-80
2022/01/24 12:09:07;;;;;;;43.08;20.80;;;;;;;1.33;78.87;101995.93;2023933;85;21577;-79
2022/01/24 12:12:43;;;;;;;40.52;19.60;;;;;;;1.33;79.41;101988.55;2024424;86;21070;-79
2022/01/24 12:16:01;;;;;;;39.65;18.80;;;;;;;1.39;79.38;101990.06;2020422;86;21109;-79
2022/01/24 12:19:06;;;;;;;43.65;21.20;;;;;;;1.45;79.18;101986.73;2028744;86;21045;-80
2022/01/24 12:22:39;;;;;;;43.40;20.50;;;;;;;1.50;79.15;101982.63;2024790;86;21051;-80
2022/01/24 12:25:54;;;;;;;43.40;21.60;;;;;;;1.54;78.81;101971.11;2018691;86;21723;-79
2022/01/24 12:29:07;;;;;;;41.35;21.25;;;;;;;1.54;78.89;101965.87;2022723;86;21082;-80
2022/01/24 12:32:24;;;;;;;49.77;23.62;;;;;;;1.57;78.45;101968.37;2027836;86;21073;-80
2022/01/24 12:35:31;;;;;;;46.95;22.42;;;;;;;1.58;78.66;101962.23;2024707;86;21448;-79
2022/01/24 12:38:49;;;;;;;43.10;22.32;;;;;;;1.63;78.04;101962.02;2027308;86;20955;-79
2022/01/24 12:42:00;;;;;;;44.67;22.40;;;;;;;1.63;78.46;101971.19;2026751;85;21394;-79
2022/01/24 12:48:22;;;;;;;47.30;23.25;;;;;;;1.66;78.13;101966.70;2023126;86;20990;-79
2022/01/24 12:51:32;;;;;;;45.33;23.15;;;;;;;1.65;78.25;101962.36;2025682;86;21044;-79
2022/01/24 12:54:41;;;;;;;42.67;20.90;;;;;;;1.64;77.66;101957.20;2024987;86;21079;-79
2022/01/24 12:57:43;;;;;;;46.77;24.07;;;;;;;1.66;77.84;101954.92;2026188;86;21047;-79
2022/01/24 13:00:47;;;;;;;55.80;27.42;;;;;;;1.63;77.25;101944.55;2024047;86;21418;-79
2022/01/24 13:03:59;;;;;;;47.40;22.85;;;;;;;1.64;78.08;101946.27;2027408;86;21472;-79
2022/01/24 13:07:02;;;;;;;45.48;21.40;;;;;;;1.72;78.24;101941.56;2023102;86;21106;-79
2022/01/24 13:10:11;;;;;;;35.98;20.15;;;;;;;1.79;77.92;101940.38;2043097;84;21518;-79
2022/01/24 13:13:14;;;;;;;45.30;20.97;;;;;;;1.83;77.80;101935.00;2030324;86;21012;-79
2022/01/24 13:23:07;;;;;;;51.33;26.12;;;;;;;1.92;77.72;101925.47;2028484;85;21060;-81
2022/01/24 13:26:07;;;;;;;50.63;27.10;;;;;;;1.99;77.73;101921.64;2028775;86;21582;-77
2022/01/24 13:29:09;;;;;;;46.45;24.40;;;;;;;2.00;77.74;101923.37;2029489;86;21017;-79
2022/01/24 13:32:10;;;;;;;41.53;21.37;;;;;;;2.05;77.71;101920.52;2026342;86;21051;-79
2022/01/24 13:35:21;;;;;;;38.40;19.82;;;;;;;2.04;77.61;101925.38;2029050;86;21067;-78
2022/01/24 13:38:29;;;;;;;40.35;21.68;;;;;;;2.08;77.68;101927.78;2031288;86;21121;-79
2022/01/24 13:41:30;;;;;;;34.08;18.12;;;;;;;2.16;77.69;101920.90;2030190;86;21033;-80
2022/01/24 13:44:32;;;;;;;31.80;16.57;;;;;;;2.20;77.58;101925.94;2031103;86;21023;-79
2022/01/24 13:47:33;;;;;;;34.45;17.65;;;;;;;2.18;77.46;101924.31;2020725;86;21455;-77
2022/01/24 13:50:36;;;;;;;36.40;20.35;;;;;;;2.15;77.38;101929.69;2030804;86;21106;-77
2022/01/24 13:53:49;;;;;;;41.30;22.35;;;;;;;2.12;77.47;101920.66;2031711;86;21054;-77
2022/01/24 13:56:55;;;;;;;43.40;22.93;;;;;;;2.11;77.59;101922.44;2008671;86;21018;-77
2022/01/24 14:00:08;;;;;;;51.58;29.02;;;;;;;2.13;77.63;101914.02;2029204;86;21129;-77
2022/01/24 14:03:11;;;;;;;42.83;24.37;;;;;;;2.10;77.35;101914.63;2029115;86;21063;-79
2022/01/24 14:06:17;;;;;;;44.05;22.35;;;;;;;2.05;77.25;101911.36;2029688;86;21075;-78
2022/01/24 14:09:19;;;;;;;55.70;25.92;;;;;;;2.03;77.22;101908.83;2028799;86;21084;-77
2022/01/24 14:12:40;;;;;;;47.78;23.18;;;;;;;2.02;77.37;101904.48;2022514;86;21101;-78
2022/01/24 14:15:48;;;;;;;52.83;23.05;;;;;;;2.04;77.30;101915.75;2023214;85;21091;-77
2022/01/24 14:18:42;;;;;;;60.60;26.65;;;;;;;2.00;77.28;101915.05;2021616;86;21051;-77
2022/01/24 14:22:11;;;;;;;48.30;23.15;;;;;;;1.99;77.32;101905.94;2023493;86;21066;-78
2022/01/24 14:25:21;;;;;;;41.95;20.17;;;;;;;1.99;77.37;101915.95;2022749;86;21751;-78
2022/01/24 14:28:23;;;;;;;47.70;23.90;;;;;;;1.97;77.23;101916.92;2026095;86;21596;-78
2022/01/24 14:31:25;;;;;;;58.13;31.87;;;;;;;1.97;77.35;101907.77;2024330;85;21060;-78
2022/01/24 14:34:29;;;;;;;61.55;33.83;;;;;;;2.01;77.52;101905.42;2019473;86;21084;-78
2022/01/24 14:37:51;;;;;;;49.90;26.07;;;;;;;2.02;77.40;101907.11;2022968;86;21480;-78
2022/01/24 14:40:54;;;;;;;49.85;25.88;;;;;;;1.98;77.45;101912.10;2024236;86;21478;-80
2022/01/24 14:47:18;;;;;;;45.45;24.07;;;;;;;1.98;77.46;101913.41;2023581;86;21066;-83
2022/01/24 14:50:19;;;;;;;42.23;22.70;;;;;;;1.95;77.40;101920.94;2025986;85;21018;-78
2022/01/24 14:53:28;;;;;;;43.87;24.43;;;;;;;1.89;77.40;101914.66;2020464;86;21569;-81
2022/01/24 14:56:25;;;;;;;48.60;26.05;;;;;;;1.83;77.47;101915.37;2028373;85;21118;-79
2022/01/24 14:59:27;;;;;;;52.53;26.23;;;;;;;1.85;77.55;101916.16;2022544;86;21077;-78
2022/01/24 15:02:29;;;;;;;64.20;30.82;;;;;;;1.86;77.69;101919.16;2021815;86;21462;-78
2022/01/24 15:05:33;;;;;;;54.77;29.50;;;;;;;1.91;77.83;101919.36;2020372;86;21035;-76
2022/01/24 15:08:36;;;;;;;60.73;32.70;;;;;;;1.95;77.81;101918.78;2026703;86;21097;-75
2022/01/24 15:11:40;;;;;;;61.75;31.50;;;;;;;1.95;77.76;101922.71;2020670;86;21079;-77
2022/01/24 15:14:45;;;;;;;61.85;29.65;;;;;;;1.91;77.69;101924.59;2003850;85;21068;-76
2022/01/24 15:23:58;;;;;;;59.15;29.27;;;;;;;1.85;77.65;101928.79;2017570;85;21079;-77
2022/01/24 15:24:39;;;;;;;63.80;32.25;;;;;;;1.75;77.87;101917.87;2018099;86;21583;-77
2022/01/24 15:27:35;;;;;;;64.05;32.23;;;;;;;1.78;77.96;101922.14;2018342;86;21732;-77
2022/01/24 15:30:39;;;;;;;65.37;30.48;;;;;;;1.76;77.88;101920.88;2022803;85;21054;-77
2022/01/24 15:33:43;;;;;;;65.45;30.65;;;;;;;1.73;77.85;101922.78;2020097;86;21065;-77
2022/01/24 15:36:44;;;;;;;69.62;33.55;;;;;;;1.69;78.00;101916.84;2020049;85;21111;-77
2022/01/24 15:39:45;;;;;;;53.30;28.75;;;;;;;1.70;78.01;101922.92;2019371;85;21444;-77
2022/01/24 15:43:02;;;;;;;50.98;26.33;;;;;;;1.67;78.07;101918.66;2021432;86;21053;-77
2022/01/24 15:46:45;;;;;;;45.05;24.82;;;;;;;1.66;78.02;101926.56;2017498;85;21698;-77
2022/01/24 15:49:03;;;;;;;55.12;30.12;;;;;;;1.65;78.05;101918.34;2021544;85;21072;-77
2022/01/24 15:52:07;;;;;;;49.93;27.07;;;;;;;1.63;78.12;101905.30;2023478;86;21008;-77
2022/01/24 15:55:16;;;;;;;52.62;28.45;;;;;;;1.64;78.06;101904.41;2022521;86;21089;-76